메인 페이지
METAR-TAF:

METAR-TAF

공항 :

벤구리온 국제공항

텔아비브 / 벤구리온, 이스라엘

위도: 32-00N, 경도: 034-54E, 고도: 40m

현재 날씨관측

예보는 37분 전, 18:50시(UTC)에 발표되었습니다.
서북서4kt
온도 26°C
습도 70%
기압 1012 hPa
시정 10km 이상
고도 2900ft 상공 구름 조금

METAR: LLBG 201850Z 30004KT 9999 FEW029 26/20 Q1012 NOSIG

시각: 22:27 (19:27 UTC)

예보

예보는 2 시간 21분 전, 17:06시(UTC)에 발표되었습니다.
예보 대상 시간: 20일 18시부터 21일 18시까지 (UTC)
여러 방향의 바람 3kt
시정 10km 이상
고도 2500ft 상공 구름 보통
일시적
21일 01시부터 21일 07시까지 (UTC)
남동4kt
고도 2000ft 상공 구름 많음
전환 중
21일 07시부터 21일 09시까지 (UTC)
8kt
고도 3000ft 상공 구름 조금
전환 중
21일 15시부터 21일 17시까지 (UTC)
북서4kt
시정 10km 이상
고도 2500ft 상공 구름 보통

TAF: LLBG 201706Z 2018/2118 VRB03KT 9999 SCT025 TEMPO 2101/2107 14004KT BKN020 BECMG 2107/2109 28008KT FEW030 BECMG 2115/2117 32004KT 9999 SCT025 TX30/2112Z TN22/2103Z

4,000개 이상의 공항 관측 자료 및 예보 (METAR 및 TAF 보고).

지도상에서 검색 가능한 기상관측소가 노란 점과 빨간 점으로 표시되어 있습니다.

기상관측소 명을 보려면 표시 위로 마우스를 이동하세요.

날씨 관측과 예보를 보려면 클릭하세요.

지도 변경 : 확대하려면 엑스 표시가 있는 녹색 버튼, 축소하려면 빼기 표시가 있는 녹색 버튼, 다음 페이지의 지도를 보려면 녹색 화살표를 클릭하세요.


METAR-TAF: